CheckWX is a tool to help pilots better visualize weather data.  It is not intended as a substitute for an official pre-flight weather briefing.

07:34:12 UTC

KLCQ METAR
Lake City Gateway Airport
Lake City, Florida, USA
Current

19 mins ago

KLCQ 060715Z AUTO 00000KT 10SM CLR 04/03 A3020 RMK AO2
Observed
Dec-6 @ 07:15 UTC
Visibility
10 SM
Flight Rules
VFR
Cloud Levels
  • Clear skies
Temperature
C / 39°F
Dewpoint
C / 37°F
Humidity
93%
Altimeter
30.2" Hg
Pressure
1022.72 hPa
Previous

39 mins ago

KLCQ 060655Z AUTO 00000KT 10SM CLR 04/03 A3020 RMK AO2
Observed
Dec-6 @ 06:55 UTC
Visibility
10 SM
Flight Rules
VFR
Cloud Levels
  • Clear skies
Temperature
C / 39°F
Dewpoint
C / 37°F
Humidity
93%
Altimeter
30.2" Hg
Pressure
1022.72 hPa
Previous

59 mins ago

KLCQ 060635Z AUTO 00000KT 10SM CLR 05/03 A3020 RMK AO2
Observed
Dec-6 @ 06:35 UTC
Visibility
10 SM
Flight Rules
VFR
Cloud Levels
  • Clear skies
Temperature
C / 41°F
Dewpoint
C / 37°F
Humidity
87%
Altimeter
30.2" Hg
Pressure
1022.72 hPa